Langnau, Switzerland
Current Conditions -  °F | °C
As of 9:20 PM on Monday 26 Jan 2015 (Local Time) from LSZB Reporting Station
Moderate Snow Moderate Snow  
Wind Chill: 30°   Ceiling: 1600
Heat Index: 30°   Visibility: 0.56mi
Dew Point: 28°   Wind: 2mph
Humidity: 93%   Direction: NA
Pressure: 30.18"   Gusts: NA
Location:  46.94°N, 7.77°E
Report Text: LSZB 262020Z VRB02KT 0900 R14/1000U SN SCT007 BKN016 M01/M02 Q1022 R14/520494 NOSIG
Loading
Personal Weather Stations






























Interactive Weather Map New forecast layout! Learn more

10-Day Weather Forecast

Advertisements
Track Severe Weather on mobile